Time;durP1;ratioP1;P1;durP2;ratioP2;P2;SDS_P1;SDS_P2;PMS_P1;PMS_P2;Temp;Humidity;BMP_temperature;BMP_pressure;BME280_temperature;BME280_humidity;BME280_pressure;Samples;Min_cycle;Max_cycle;Signal;HPM_P1;HPM_P2
2022/05/02 00:01:43;;;;;;;;;20.75;19.00;;;;;13.31;50.02;101320.19;5054638;28;45775;-60
2022/05/02 00:04:09;;;;;;;;;21.75;18.50;;;;;13.26;50.08;101323.94;5055004;28;45357;-57
2022/05/02 00:06:34;;;;;;;;;18.75;18.25;;;;;13.26;50.35;101333.75;5056329;28;45345;-60
2022/05/02 00:09:00;;;;;;;;;14.25;14.25;;;;;13.24;49.76;101330.31;5054527;27;45427;-59
2022/05/02 00:11:25;;;;;;;;;23.00;20.50;;;;;13.28;49.53;101326.53;5054201;28;45592;-59
2022/05/02 00:13:51;;;;;;;;;20.00;17.75;;;;;13.31;50.05;101317.50;5055337;28;45519;-58
2022/05/02 00:16:16;;;;;;;;;21.25;19.25;;;;;13.25;50.59;101305.34;5056039;27;45681;-57
2022/05/02 00:18:42;;;;;;;;;17.50;17.50;;;;;13.34;50.40;101322.66;5072429;28;47551;-59
2022/05/02 00:21:07;;;;;;;;;20.00;20.00;;;;;13.21;49.80;101298.44;5055477;28;45437;-58
2022/05/02 00:23:33;;;;;;;;;19.50;16.00;;;;;13.27;50.20;101306.97;5056887;27;45333;-54
2022/05/02 00:25:58;;;;;;;;;19.00;19.00;;;;;13.26;50.29;101312.41;5056060;28;45515;-55
2022/05/02 00:28:24;;;;;;;;;22.75;21.50;;;;;13.26;50.25;101301.72;5055200;28;47977;-57
2022/05/02 00:30:50;;;;;;;;;29.75;28.25;;;;;13.30;49.99;101308.63;5054844;28;45861;-60
2022/05/02 00:33:18;;;;;;;;;38.50;36.75;;;;;13.27;50.72;101298.09;5056554;28;45324;-62
2022/05/02 00:35:44;;;;;;;;;46.50;38.00;;;;;13.27;50.67;101298.09;5057113;28;45248;-61
2022/05/02 00:38:09;;;;;;;;;35.75;33.00;;;;;13.25;49.91;101303.53;5055757;28;46395;-59
2022/05/02 00:40:35;;;;;;;;;33.00;33.00;;;;;13.28;50.07;101305.16;5056092;28;45246;-57
2022/05/02 00:43:00;;;;;;;;;40.50;35.25;;;;;13.28;49.97;101302.47;5056140;28;45538;-60
2022/05/02 00:45:26;;;;;;;;;41.00;35.25;;;;;13.25;50.29;101300.84;5056471;28;45318;-58
2022/05/02 00:47:53;;;;;;;;;35.00;33.75;;;;;13.24;49.83;101299.13;5056137;28;46216;-57
2022/05/02 00:50:36;;;;;;;;;38.00;35.00;;;;;13.22;50.32;101289.47;5055824;28;45367;-54
2022/05/02 00:53:08;;;;;;;;;40.75;35.75;;;;;13.24;50.11;101290.25;5054819;28;45384;-56
2022/05/02 00:55:34;;;;;;;;;37.75;33.75;;;;;13.25;49.98;101289.31;5056583;28;45286;-58
2022/05/02 00:58:00;;;;;;;;;34.50;29.75;;;;;13.17;50.96;101288.84;5054668;28;47617;-56
2022/05/02 01:00:28;;;;;;;;;36.75;33.75;;;;;13.11;50.94;101278.50;5054479;28;45898;-60
2022/05/02 01:02:53;;;;;;;;;38.00;33.00;;;;;12.96;51.24;101278.41;5056455;28;45416;-60
2022/05/02 01:05:19;;;;;;;;;29.50;29.50;;;;;12.88;51.72;101280.63;5055734;27;45647;-61
2022/05/02 01:07:46;;;;;;;;;39.50;36.50;;;;;12.83;51.64;101276.50;5055645;27;45508;-62
2022/05/02 01:10:16;;;;;;;;;43.00;36.25;;;;;12.80;51.62;101277.53;5056061;28;45333;-60
2022/05/02 01:12:43;;;;;;;;;36.50;31.25;;;;;12.71;51.67;101256.66;5054764;28;45388;-59
2022/05/02 01:15:09;;;;;;;;;36.00;32.50;;;;;12.70;52.15;101263.81;5054874;28;45472;-64
2022/05/02 01:17:35;;;;;;;;;30.00;29.25;;;;;12.70;51.53;101261.16;5071380;27;47935;-63
2022/05/02 01:20:04;;;;;;;;;39.00;31.50;;;;;12.72;51.15;101252.19;5055486;27;45247;-61
2022/05/02 01:22:30;;;;;;;;;28.50;27.50;;;;;12.74;51.33;101251.16;5055717;28;45366;-64
2022/05/02 01:24:55;;;;;;;;;28.50;25.00;;;;;12.80;51.58;101260.66;5054903;27;45589;-62
2022/05/02 01:27:21;;;;;;;;;25.00;20.50;;;;;12.72;51.36;101246.84;5054651;27;45398;-62
2022/05/02 01:29:46;;;;;;;;;20.50;19.25;;;;;12.75;51.25;101249.34;5056157;28;45330;-60
2022/05/02 01:32:14;;;;;;;;;21.00;18.75;;;;;12.81;50.86;101257.03;5055810;28;45777;-61
2022/05/02 01:34:40;;;;;;;;;27.50;20.50;;;;;12.77;50.90;101248.34;5072138;28;45722;-60
2022/05/02 01:37:10;;;;;;;;;16.00;16.00;;;;;12.75;51.40;101263.56;5056388;27;45874;-61
2022/05/02 01:39:36;;;;;;;;;18.00;16.25;;;;;12.64;51.18;101257.97;5058367;28;45507;-63
2022/05/02 01:42:03;;;;;;;;;20.75;18.50;;;;;12.69;51.26;101263.91;5059210;27;45396;-62
2022/05/02 01:44:29;;;;;;;;;17.50;14.25;;;;;12.70;51.33;101255.81;5059399;27;45416;-64
2022/05/02 01:46:55;;;;;;;;;23.00;20.75;;;;;12.70;51.10;101250.47;5074320;28;45446;-65
2022/05/02 01:49:21;;;;;;;;;20.25;20.25;;;;;12.72;50.88;101258.38;5059292;28;45272;-59
2022/05/02 01:51:46;;;;;;;;;20.50;17.50;;;;;12.74;51.26;101267.16;5057874;28;45421;-63
2022/05/02 01:54:12;;;;;;;;;20.00;18.50;;;;;12.72;51.21;101258.38;5059351;28;45724;-60
2022/05/02 01:56:37;;;;;;;;;18.50;18.00;;;;;12.73;51.30;101264.59;5059259;28;46285;-62
2022/05/02 01:59:04;;;;;;;;;20.50;18.50;;;;;12.70;51.01;101254.94;5058926;28;45367;-56
2022/05/02 02:01:30;;;;;;;;;21.50;18.50;;;;;12.68;51.19;101262.19;5058025;28;45278;-56
2022/05/02 02:03:56;;;;;;;;;20.75;19.00;;;;;12.71;51.48;101262.00;5058982;28;45441;-59
2022/05/02 02:06:24;;;;;;;;;24.25;22.00;;;;;12.65;51.19;101255.22;5074352;27;47938;-62
2022/05/02 02:08:50;;;;;;;;;19.00;18.75;;;;;12.57;51.69;101245.88;5057574;28;45548;-59
2022/05/02 02:11:16;;;;;;;;;20.75;20.75;;;;;12.63;51.43;101256.22;5058733;28;45433;-59
2022/05/02 02:13:41;;;;;;;;;17.75;16.00;;;;;12.66;51.76;101253.41;5058940;28;45450;-61
2022/05/02 02:16:09;;;;;;;;;21.75;20.50;;;;;12.67;51.22;101255.97;5058070;28;46076;-62
2022/05/02 02:18:38;;;;;;;;;23.25;19.75;;;;;12.68;51.46;101251.50;5073936;27;45429;-57
2022/05/02 02:21:04;;;;;;;;;23.50;23.25;;;;;12.68;51.14;101256.84;5057195;28;45450;-58
2022/05/02 02:23:30;;;;;;;;;24.50;20.75;;;;;12.66;51.59;101261.41;5059075;28;45377;-60
2022/05/02 02:25:56;;;;;;;;;27.25;23.25;;;;;12.59;52.24;101252.00;5058478;28;46384;-60
2022/05/02 02:28:21;;;;;;;;;22.25;21.75;;;;;12.51;52.39;101244.41;5058765;27;45224;-56
2022/05/02 02:30:47;;;;;;;;;24.25;19.50;;;;;12.45;52.34;101243.88;5058875;28;45259;-62
2022/05/02 02:33:12;;;;;;;;;31.25;21.75;;;;;12.42;52.43;101244.91;5058608;28;45523;-57
2022/05/02 02:35:38;;;;;;;;;23.75;22.00;;;;;12.36;52.78;101240.72;5056909;28;47037;-63
2022/05/02 02:38:04;;;;;;;;;21.75;21.75;;;;;12.35;52.13;101231.00;5058207;27;45429;-56
2022/05/02 02:40:31;;;;;;;;;24.00;22.25;;;;;12.35;52.06;101227.47;5058128;28;45286;-57
2022/05/02 02:42:56;;;;;;;;;30.50;29.25;;;;;12.47;51.83;101242.84;5058020;28;45566;-63
2022/05/02 02:45:22;;;;;;;;;21.25;20.00;;;;;12.48;51.87;101243.69;5058241;27;46158;-61
2022/05/02 02:47:47;;;;;;;;;27.00;22.50;;;;;12.32;51.91;101223.19;5057408;27;45452;-62
2022/05/02 02:50:13;;;;;;;;;22.75;21.75;;;;;12.40;52.16;101239.66;5058332;28;45384;-62
2022/05/02 02:52:38;;;;;;;;;23.75;22.50;;;;;12.45;51.68;101243.88;5074222;27;45608;-61
2022/05/02 02:55:05;;;;;;;;;23.25;23.00;;;;;12.37;51.95;101228.28;5057237;28;45513;-61
2022/05/02 02:57:30;;;;;;;;;25.00;23.50;;;;;12.40;51.57;101230.78;5058229;28;45358;-59
2022/05/02 02:59:56;;;;;;;;;34.50;28.50;;;;;12.41;51.97;101243.19;5056965;28;45217;-55
2022/05/02 03:02:22;;;;;;;;;27.25;23.00;;;;;12.41;52.46;101232.50;5058504;28;45251;-58
2022/05/02 03:07:33;;;;;;;;;24.25;21.25;;;;;12.37;51.91;101226.47;5057974;28;45177;-60
2022/05/02 03:09:58;;;;;;;;;28.75;24.00;;;;;12.32;52.35;101223.19;5056850;28;45308;-57
2022/05/02 03:12:25;;;;;;;;;26.25;19.50;;;;;12.24;52.34;101219.19;5058294;28;45534;-56
2022/05/02 03:14:50;;;;;;;;;22.25;20.25;;;;;12.22;52.95;101227.28;5056155;28;47791;-61
2022/05/02 03:17:15;;;;;;;;;29.00;24.75;;;;;12.20;52.96;101223.81;5056335;28;45512;-61
2022/05/02 03:19:41;;;;;;;;;30.25;25.75;;;;;12.18;52.87;101217.72;5056599;28;45427;-54
2022/05/02 03:22:07;;;;;;;;;27.00;25.00;;;;;11.95;53.34;101186.06;5058032;28;45543;-58
2022/05/02 03:24:32;;;;;;;;;31.75;27.50;;;;;12.05;52.64;101198.84;5056227;28;47338;-60
2022/05/02 03:26:57;;;;;;;;;28.25;26.50;;;;;12.11;52.63;101208.34;5057953;28;45437;-59
2022/05/02 03:29:23;;;;;;;;;27.50;26.50;;;;;12.15;52.50;101209.03;5056480;28;45611;-56
2022/05/02 03:31:48;;;;;;;;;30.25;28.50;;;;;12.10;52.71;101191.44;5057849;28;45317;-59
2022/05/02 03:34:14;;;;;;;;;23.75;23.25;;;;;12.12;52.55;101207.38;5056115;28;45410;-57
2022/05/02 03:36:39;;;;;;;;;23.50;22.00;;;;;12.03;52.43;101194.53;5057268;28;45430;-62
2022/05/02 03:39:05;;;;;;;;;26.00;23.25;;;;;12.08;52.24;101197.81;5057546;28;45265;-60
2022/05/02 03:41:31;;;;;;;;;30.00;29.50;;;;;12.07;52.65;101206.75;5073213;27;45520;-56
2022/05/02 03:43:57;;;;;;;;;25.50;25.00;;;;;12.07;52.36;101206.75;5057342;28;46591;-57
2022/05/02 03:46:22;;;;;;;;;30.00;25.00;;;;;12.05;52.72;101200.66;5056162;28;45366;-61
2022/05/02 03:48:48;;;;;;;;;39.00;31.00;;;;;12.05;52.65;101204.16;5057584;28;45304;-64
2022/05/02 03:51:13;;;;;;;;;30.00;28.00;;;;;12.07;52.43;101204.09;5057665;28;45550;-60
2022/05/02 03:53:39;;;;;;;;;25.25;24.25;;;;;12.05;52.74;101204.16;5057158;28;45314;-61
2022/05/02 03:56:04;;;;;;;;;24.00;23.00;;;;;12.00;52.56;101202.69;5055968;28;45472;-62
2022/05/02 03:58:30;;;;;;;;;25.75;23.25;;;;;11.96;52.54;101193.97;5057155;28;45200;-61
2022/05/02 04:00:56;;;;;;;;;24.00;23.00;;;;;11.96;52.87;101211.78;5056689;27;45416;-59
2022/05/02 04:03:21;;;;;;;;;29.75;24.25;;;;;11.93;52.82;101209.28;5057100;28;45723;-63
2022/05/02 04:05:47;;;;;;;;;27.50;27.50;;;;;11.87;53.89;101198.94;5056888;28;45394;-61
2022/05/02 04:08:12;;;;;;;;;33.50;27.50;;;;;11.79;54.34;101208.19;5057039;28;45807;-62
2022/05/02 04:10:38;;;;;;;;;30.50;26.25;;;;;11.65;54.58;101202.66;5057225;28;45354;-60
2022/05/02 04:13:03;;;;;;;;;28.25;27.50;;;;;11.62;54.97;101201.97;5056652;28;45873;-58
2022/05/02 04:15:29;;;;;;;;;30.00;28.25;;;;;11.64;54.74;101200.94;5057380;28;45887;-58
2022/05/02 04:17:55;;;;;;;;;44.25;35.00;;;;;11.65;54.21;101200.00;5055804;28;45335;-63
2022/05/02 04:20:22;;;;;;;;;35.75;27.50;;;;;11.69;53.75;101198.91;5055777;28;45485;-57
2022/05/02 04:22:47;;;;;;;;;28.25;26.50;;;;;11.74;54.17;101204.88;5072172;27;47553;-58
2022/05/02 04:25:13;;;;;;;;;34.00;30.00;;;;;11.75;53.62;101206.59;5056353;28;45404;-53
2022/05/02 04:27:38;;;;;;;;;35.25;31.00;;;;;11.75;54.05;101206.59;5056747;28;45401;-60
2022/05/02 04:30:04;;;;;;;;;38.50;31.25;;;;;11.66;53.95;101184.88;5056998;28;45429;-59
2022/05/02 04:32:30;;;;;;;;;31.75;28.50;;;;;11.74;53.70;101204.88;5056773;28;45599;-56
2022/05/02 04:34:58;;;;;;;;;35.00;33.25;;;;;11.76;53.53;101202.13;5055563;28;45334;-54
2022/05/02 04:37:24;;;;;;;;;33.25;31.25;;;;;11.79;54.29;101207.31;5055708;28;45310;-59
2022/05/02 04:39:49;;;;;;;;;37.25;31.00;;;;;11.76;53.75;101202.13;5056956;28;45444;-54
2022/05/02 04:42:15;;;;;;;;;27.75;26.00;;;;;11.70;53.36;101197.94;5056189;28;45448;-56
2022/05/02 04:44:40;;;;;;;;;36.25;33.00;;;;;11.76;53.85;101203.00;5071841;27;45441;-59
2022/05/02 04:47:05;;;;;;;;;31.25;29.00;;;;;11.67;53.87;101200.78;5055568;28;45854;-64
2022/05/02 04:49:32;;;;;;;;;30.25;27.25;;;;;11.62;54.74;101200.16;5055381;28;45338;-60
2022/05/02 04:51:57;;;;;;;;;27.25;27.25;;;;;11.70;54.17;101211.28;5056529;28;46298;-63
2022/05/02 04:54:23;;;;;;;;;32.75;28.50;;;;;11.76;53.96;101207.47;5054279;28;45374;-62
2022/05/02 04:56:48;;;;;;;;;34.00;28.50;;;;;11.77;54.07;101214.50;5054263;28;45420;-62
2022/05/02 04:59:14;;;;;;;;;34.50;28.50;;;;;11.73;53.67;101211.16;5056775;28;45551;-60
2022/05/02 05:01:39;;;;;;;;;33.25;29.25;;;;;11.72;54.36;101214.75;5056119;27;46099;-60
2022/05/02 05:04:05;;;;;;;;;37.50;29.75;;;;;11.68;54.66;101209.63;5056648;28;45220;-57
2022/05/02 05:06:30;;;;;;;;;28.00;25.00;;;;;11.65;54.94;101209.81;5056632;28;45369;-58
2022/05/02 05:08:56;;;;;;;;;31.50;30.25;;;;;11.65;55.33;101216.00;5056600;28;45587;-56
2022/05/02 05:11:31;;;;;;;;;32.25;31.25;;;;;11.57;55.21;101210.16;5055830;27;45492;-60
2022/05/02 05:17:31;;;;;;;;;37.00;31.25;;;;;11.59;55.10;101221.66;5056082;28;45483;-58
2022/05/02 05:20:08;;;;;;;;;36.75;32.00;;;;;11.60;54.45;101211.84;5056220;27;45505;-61
2022/05/02 05:22:44;;;;;;;;;31.00;29.00;;;;;11.70;54.72;101215.75;5055938;28;46422;-57
2022/05/02 05:25:38;;;;;;;;;42.00;38.25;;;;;11.74;54.90;101220.88;5054170;27;45440;-61
2022/05/02 05:28:09;;;;;;;;;32.00;29.50;;;;;11.74;54.31;101217.34;5055968;28;45383;-56
2022/05/02 05:30:46;;;;;;;;;39.50;36.50;;;;;11.81;54.57;101213.44;5055618;28;45343;-59
2022/05/02 05:33:31;;;;;;;;;33.25;30.00;;;;;11.89;54.15;101210.38;5055516;28;46548;-61
2022/05/02 05:36:17;;;;;;;;;39.75;33.00;;;;;11.98;53.42;101221.44;5055607;28;45359;-61
2022/05/02 05:38:42;;;;;;;;;40.00;37.50;;;;;12.06;53.39;101221.88;5054129;27;45426;-62
2022/05/02 05:41:18;;;;;;;;;36.75;34.50;;;;;12.12;53.15;101210.06;5055783;27;45699;-56
2022/05/02 05:43:52;;;;;;;;;40.75;36.00;;;;;12.18;53.43;101203.53;5055458;28;46285;-62
2022/05/02 05:46:48;;;;;;;;;39.75;36.75;;;;;12.17;53.37;101212.47;5055534;28;45378;-57
2022/05/02 05:49:13;;;;;;;;;38.25;36.00;;;;;12.20;53.28;101215.81;5054080;28;45426;-62
2022/05/02 05:51:48;;;;;;;;;41.25;37.00;;;;;12.27;52.80;101203.06;5055770;28;45521;-60
2022/05/02 05:54:44;;;;;;;;;41.50;36.00;;;;;12.34;52.84;101210.63;5055922;28;45979;-63
2022/05/02 05:57:46;;;;;;;;;38.50;34.75;;;;;12.40;52.40;101196.97;5055277;28;45359;-59
2022/05/02 06:00:15;;;;;;;;;37.00;32.75;;;;;12.47;52.33;101209.97;5055677;28;45354;-62
2022/05/02 06:02:49;;;;;;;;;46.00;36.50;;;;;12.52;51.89;101207.94;5055517;28;45477;-55
2022/05/02 06:05:16;;;;;;;;;41.00;36.00;;;;;12.57;52.22;101205.84;5070443;28;47770;-56
2022/05/02 06:07:43;;;;;;;;;42.50;36.50;;;;;12.62;51.92;101206.47;5054727;28;45351;-59
2022/05/02 06:10:09;;;;;;;;;36.50;35.50;;;;;12.64;52.11;101213.47;5055107;28;45297;-58
2022/05/02 06:12:36;;;;;;;;;35.50;33.75;;;;;12.58;51.91;101212.91;5037003;28;45486;-55
2022/05/02 06:20:38;;;;;;;;;42.75;36.75;;;;;12.60;52.09;101216.34;5055479;28;45369;-56
2022/05/02 06:23:10;;;;;;;;;41.25;36.00;;;;;12.68;51.82;101216.81;5054654;28;45525;-54
2022/05/02 06:25:40;;;;;;;;;48.00;39.00;;;;;12.74;51.50;101215.59;5058318;28;46263;-53
2022/05/02 06:28:07;;;;;;;;;39.25;36.00;;;;;12.71;51.46;101213.97;5056980;27;45819;-59
2022/05/02 06:30:37;;;;;;;;;34.75;32.00;;;;;12.70;51.55;101218.44;5058325;28;45379;-58
2022/05/02 06:33:11;;;;;;;;;41.75;37.50;;;;;12.81;51.41;101217.84;5057958;28;45642;-60
2022/05/02 06:36:02;;;;;;;;;40.00;36.75;;;;;12.89;51.01;101223.66;5058491;27;45346;-63
2022/05/02 06:38:50;;;;;;;;;44.00;38.50;;;;;12.97;51.09;101216.06;5058257;27;45340;-56
2022/05/02 06:41:18;;;;;;;;;45.00;35.75;;;;;13.07;50.89;101212.88;5073630;27;45560;-63
2022/05/02 06:44:06;;;;;;;;;44.25;36.00;;;;;13.13;50.65;101210.69;5058552;28;45270;-62
2022/05/02 06:46:40;;;;;;;;;50.25;36.00;;;;;13.14;50.28;101219.56;5058328;28;46453;-62
2022/05/02 06:49:12;;;;;;;;;40.50;34.25;;;;;13.14;50.81;101219.56;5058245;28;45492;-64
2022/05/02 06:51:48;;;;;;;;;40.50;33.75;;;;;13.17;50.86;101211.41;5057182;28;45273;-62
2022/05/02 06:54:29;;;;;;;;;48.75;39.25;;;;;13.20;50.50;101211.25;5050778;28;45397;-59
2022/05/02 06:57:09;;;;;;;;;43.25;39.00;;;;;13.41;49.77;101222.50;5073140;27;45977;-57
2022/05/02 06:59:43;;;;;;;;;38.50;32.50;;;;;13.41;49.71;101226.06;5058028;28;45216;-64
2022/05/02 07:02:12;;;;;;;;;41.50;33.50;;;;;13.34;49.69;101223.81;5057961;28;45409;-60
2022/05/02 07:04:48;;;;;;;;;38.00;34.50;;;;;13.27;49.73;101223.28;5073886;28;45819;-61
2022/05/02 07:07:46;;;;;;;;;41.50;37.25;;;;;13.26;50.10;101226.91;5057656;28;46233;-59
2022/05/02 07:10:24;;;;;;;;;44.00;36.50;;;;;13.27;49.87;101224.16;5057178;27;45366;-60
2022/05/02 07:13:02;;;;;;;;;45.75;36.25;;;;;13.39;49.70;101229.75;5057149;28;45334;-60
2022/05/02 07:16:04;;;;;;;;;37.75;31.25;;;;;13.47;49.09;101230.19;5073613;27;45375;-63
2022/05/02 07:18:51;;;;;;;;;38.00;36.00;;;;;13.44;49.00;101231.22;5057266;28;46378;-59
2022/05/02 07:21:36;;;;;;;;;43.50;38.00;;;;;13.58;49.00;101233.97;5056344;28;45430;-61
2022/05/02 07:24:11;;;;;;;;;38.00;35.50;;;;;13.74;48.99;101222.34;5058200;27;45467;-57
2022/05/02 07:26:38;;;;;;;;;41.50;38.75;;;;;13.75;48.76;101218.72;5058094;27;45254;-56
2022/05/02 07:29:05;;;;;;;;;32.50;30.50;;;;;13.87;48.06;101226.03;5057462;28;46685;-60
2022/05/02 07:31:34;;;;;;;;;52.25;41.00;;;;;13.77;48.30;101214.16;5072972;27;45526;-62
2022/05/02 07:34:02;;;;;;;;;47.75;39.75;;;;;13.70;48.63;101226.19;5057687;27;45386;-59
2022/05/02 07:36:33;;;;;;;;;49.75;35.25;;;;;13.78;48.70;101223.88;5056524;27;45345;-57
2022/05/02 07:39:03;;;;;;;;;37.75;35.00;;;;;13.86;48.50;101226.97;5055713;27;45640;-60
2022/05/02 07:41:28;;;;;;;;;38.75;35.00;;;;;14.00;48.25;101229.69;5057239;28;45362;-62
2022/05/02 07:44:02;;;;;;;;;37.25;32.50;;;;;14.09;48.38;101234.50;5057435;28;45997;-64
2022/05/02 07:46:38;;;;;;;;;40.75;35.00;;;;;14.20;47.82;101235.66;5056367;28;45491;-64
2022/05/02 07:49:06;;;;;;;;;38.25;35.50;;;;;14.27;47.59;101231.63;5056993;28;45489;-58
2022/05/02 07:51:33;;;;;;;;;43.50;36.75;;;;;14.30;47.24;101231.44;5056918;27;45287;-54
2022/05/02 07:54:00;;;;;;;;;47.00;39.00;;;;;14.38;47.25;101231.84;5056778;28;45303;-58
2022/05/02 07:56:31;;;;;;;;;37.25;33.50;;;;;14.42;47.58;101219.97;5072972;27;45279;-57
2022/05/02 07:58:59;;;;;;;;;31.50;30.50;;;;;14.51;46.85;101224.81;5057062;28;45350;-57
2022/05/02 08:01:25;;;;;;;;;46.75;38.00;;;;;14.58;46.78;101226.13;5056932;28;45330;-57
2022/05/02 08:03:52;;;;;;;;;44.25;38.75;;;;;14.63;46.90;101240.09;5057118;28;45319;-62
2022/05/02 08:06:18;;;;;;;;;37.50;35.00;;;;;14.52;47.38;101231.03;5057126;28;45316;-59
2022/05/02 08:08:57;;;;;;;;;51.67;43.33;;;;;14.14;47.70;101173.53;5056383;27;45372;-59
2022/05/02 08:12:01;;;;;;;;;41.75;37.25;;;;;14.62;47.56;101240.19;5057008;28;45449;-59
2022/05/02 08:14:42;;;;;;;;;51.75;40.50;;;;;14.86;47.18;101235.13;5040646;28;45392;-59
2022/05/02 08:17:23;;;;;;;;;42.25;37.25;;;;;15.04;46.28;101229.44;5057159;28;45332;-58
2022/05/02 08:20:03;;;;;;;;;48.75;37.75;;;;;15.12;46.15;101222.72;5056619;28;45723;-58
2022/05/02 08:28:52;;;;;;;;;38.00;37.00;;;;;15.23;46.53;101220.19;5057020;28;45343;-60
2022/05/02 08:31:32;;;;;;;;;43.25;36.75;;;;;15.46;46.14;101226.72;5056181;27;45353;-52
2022/05/02 08:34:28;;;;;;;;;41.50;38.00;;;;;15.67;45.65;101211.06;5056515;27;45299;-60
2022/05/02 08:37:26;;;;;;;;;45.75;36.50;;;;;15.92;45.27;101211.97;5055359;28;45480;-60
2022/05/02 08:40:19;;;;;;;;;40.25;36.75;;;;;16.00;45.08;101207.88;5053409;28;45479;-62
2022/05/02 08:43:19;;;;;;;;;43.25;37.50;;;;;16.01;44.34;101214.97;5056039;28;45397;-62
2022/05/02 08:46:03;;;;;;;;;47.00;37.25;;;;;16.01;45.11;101215.81;5055439;28;45394;-59
2022/05/02 08:48:40;;;;;;;;;43.25;36.75;;;;;16.17;44.65;101213.81;5056421;28;45186;-63
2022/05/02 08:51:44;;;;;;;;;49.75;40.00;;;;;16.30;44.24;101211.16;5056318;28;45274;-55
2022/05/02 08:54:30;;;;;;;;;48.50;40.50;;;;;16.36;44.28;101209.84;5036812;28;46056;-62
2022/05/02 08:56:59;;;;;;;;;45.75;39.50;;;;;16.48;44.27;101211.66;5056128;28;45342;-56
2022/05/02 09:00:02;;;;;;;;;38.75;36.00;;;;;16.59;43.76;101200.16;5071597;28;45385;-59
2022/05/02 09:03:17;;;;;;;;;46.25;38.50;;;;;16.73;43.70;101218.88;5056235;28;45409;-55
2022/05/02 09:06:09;;;;;;;;;49.00;38.00;;;;;16.87;43.46;101216.03;5056086;28;45434;-57
2022/05/02 09:09:01;;;;;;;;;39.75;35.25;;;;;17.11;42.86;101216.09;5055824;28;45360;-57
2022/05/02 09:12:05;;;;;;;;;46.50;39.00;;;;;17.19;42.92;101218.19;5035967;28;45420;-63
2022/05/02 09:14:48;;;;;;;;;46.00;35.50;;;;;17.30;42.01;101215.56;5039227;28;45720;-56
2022/05/02 09:17:46;;;;;;;;;47.25;37.00;;;;;17.31;42.41;101209.22;5055612;28;46726;-59
2022/05/02 09:20:45;;;;;;;;;47.75;38.75;;;;;17.65;42.36;101207.56;5046922;28;45451;-59
2022/05/02 09:23:29;;;;;;;;;50.50;41.25;;;;;17.99;41.61;101200.50;5071095;28;45319;-58
2022/05/02 09:26:06;;;;;;;;;48.50;38.00;;;;;18.37;41.38;101199.31;5056035;28;45497;-60
2022/05/02 09:28:53;;;;;;;;;35.75;31.50;;;;;18.47;40.05;101195.75;5055508;27;45264;-61
2022/05/02 09:31:43;;;;;;;;;43.75;38.00;;;;;18.71;40.22;101197.50;5055685;28;45387;-57
2022/05/02 09:34:19;;;;;;;;;50.25;40.00;;;;;18.75;39.88;101194.47;5055541;28;45287;-62
2022/05/02 09:37:01;;;;;;;;;47.75;39.00;;;;;19.07;39.97;101190.97;5056112;28;45173;-57
2022/05/02 09:40:04;;;;;;;;;48.67;38.00;;;;;19.54;39.16;101188.88;5055264;27;45329;-61
2022/05/02 09:43:05;;;;;;;;;46.00;38.00;;;;;19.91;38.86;101173.97;5055105;28;45402;-60
2022/05/02 09:51:51;;;;;;;;;42.00;37.00;;;;;20.74;35.68;101178.41;5054959;28;45901;-55
2022/05/02 09:58:08;;;;;;;;;47.00;39.67;;;;;21.09;35.34;101161.66;5055178;28;45340;-62
2022/05/02 10:01:07;;;;;;;;;41.67;34.33;;;;;21.19;34.94;101167.97;5058388;27;45523;-60
2022/05/02 10:03:55;;;;;;;;;47.50;38.00;;;;;21.19;35.02;101167.09;5058712;28;45543;-58
2022/05/02 10:06:34;;;;;;;;;49.67;38.67;;;;;21.23;35.71;101162.28;5057725;28;45413;-60
2022/05/02 10:09:04;;;;;;;;;45.00;38.33;;;;;20.89;34.82;101165.34;5058514;27;45325;-57
2022/05/02 10:11:30;;;;;;;;;45.67;37.67;;;;;20.47;35.75;101170.91;5057602;27;45401;-58
2022/05/02 10:14:22;;;;;;;;;44.67;37.33;;;;;20.40;36.30;101172.38;5058545;28;45884;-54
2022/05/02 10:16:50;;;;;;;;;42.00;36.33;;;;;20.44;36.54;101165.75;5058691;28;45529;-56
2022/05/02 10:19:34;;;;;;;;;46.33;38.33;;;;;20.54;36.18;101165.78;5058849;28;45414;-56
2022/05/02 10:22:29;;;;;;;;;49.33;40.33;;;;;20.50;35.81;101165.22;5058556;28;45452;-55
2022/05/02 10:25:01;;;;;;;;;47.67;39.67;;;;;20.46;36.05;101152.97;5058445;28;46124;-55
2022/05/02 10:27:56;;;;;;;;;41.33;35.00;;;;;20.50;36.03;101154.41;5058395;28;45262;-52
2022/05/02 10:30:24;;;;;;;;;40.67;34.00;;;;;20.46;35.96;101142.19;5057053;28;45247;-60
2022/05/02 10:32:56;;;;;;;;;39.00;35.33;;;;;20.37;36.31;101137.56;5074039;27;45400;-61
2022/05/02 10:35:24;;;;;;;;;32.00;30.67;;;;;20.40;36.42;101156.19;5040364;28;45689;-61
2022/05/02 10:38:07;;;;;;;;;32.67;30.33;;;;;20.44;36.50;101154.09;5057214;28;45456;-62
2022/05/02 10:40:45;;;;;;;;;26.67;24.33;;;;;20.47;36.36;101154.69;5057085;28;45389;-64
2022/05/02 10:43:23;;;;;;;;;47.33;37.33;;;;;20.43;36.25;101145.13;5056803;27;45297;-60
2022/05/02 10:45:49;;;;;;;;;36.33;31.67;;;;;20.30;36.15;101139.94;5058166;28;46141;-55
2022/05/02 10:48:15;;;;;;;;;34.67;32.67;;;;;20.18;36.67;101145.53;5074061;27;45284;-56
2022/05/02 10:50:48;;;;;;;;;34.67;31.67;;;;;20.12;36.59;101148.78;5058106;28;45250;-57
2022/05/02 10:53:22;;;;;;;;;36.67;33.67;;;;;20.09;36.90;101149.06;5057118;28;45441;-54
2022/05/02 10:56:27;;;;;;;;;32.00;31.00;;;;;20.12;37.01;101144.25;5058203;28;45269;-60
2022/05/02 10:58:54;;;;;;;;;40.00;31.67;;;;;20.20;36.90;101130.94;5057758;28;45341;-58
2022/05/02 11:01:34;;;;;;;;;34.00;31.67;;;;;20.21;37.11;101137.19;5058188;28;45307;-55
2022/05/02 11:04:14;;;;;;;;;30.33;30.00;;;;;20.16;36.86;101131.31;5058323;28;45429;-57
2022/05/02 11:07:03;;;;;;;;;36.00;32.67;;;;;20.31;36.93;101127.28;5057942;28;45672;-53
2022/05/02 11:09:56;;;;;;;;;32.00;30.67;;;;;19.96;36.69;101103.38;5056997;28;45412;-58
2022/05/02 11:12:26;;;;;;;;;38.33;33.67;;;;;20.17;37.29;101133.88;5057193;28;45374;-57
2022/05/02 11:15:01;;;;;;;;;44.00;36.33;;;;;20.25;36.83;101134.09;5057112;28;45609;-57
2022/05/02 11:18:08;;;;;;;;;38.67;33.33;;;;;20.16;36.97;101125.94;5056526;28;46230;-61
2022/05/02 11:20:42;;;;;;;;;32.33;27.00;;;;;20.17;37.24;101124.94;5050860;28;45745;-57
2022/05/02 11:23:29;;;;;;;;;34.67;32.00;;;;;20.21;37.33;101126.41;5057602;28;45338;-61
2022/05/02 11:26:12;;;;;;;;;34.67;30.67;;;;;20.29;36.70;101118.44;5050784;28;45659;-61
2022/05/02 11:28:56;;;;;;;;;34.67;31.00;;;;;20.06;37.02;101122.34;5057457;28;45481;-56
2022/05/02 11:31:34;;;;;;;;;40.00;33.00;;;;;20.26;37.42;101113.31;5057243;28;45469;-57
2022/05/02 11:34:11;;;;;;;;;35.67;31.00;;;;;20.42;36.92;101119.09;5057418;28;45231;-57
2022/05/02 11:36:44;;;;;;;;;34.00;33.00;;;;;20.57;36.66;101112.34;5073155;28;45276;-56
2022/05/02 11:39:19;;;;;;;;;31.33;30.67;;;;;20.65;36.46;101110.78;5057033;27;46027;-59
2022/05/02 11:41:47;;;;;;;;;33.00;31.00;;;;;20.60;36.16;101108.53;5057054;28;45326;-57
2022/05/02 11:44:14;;;;;;;;;34.00;31.00;;;;;20.45;36.72;101115.31;5057222;27;45439;-61
2022/05/02 11:47:05;;;;;;;;;31.33;27.67;;;;;20.53;36.69;101105.50;5057248;28;45346;-58
2022/05/02 11:50:03;;;;;;;;;30.67;27.33;;;;;20.77;36.46;101105.13;5053018;28;46373;-59
2022/05/02 11:52:32;;;;;;;;;35.67;33.67;;;;;20.86;36.09;101096.19;5056894;28;45408;-57
2022/05/02 11:54:59;;;;;;;;;30.00;23.67;;;;;21.13;36.29;101102.78;5057120;27;45356;-56
2022/05/02 11:57:35;;;;;;;;;31.33;29.67;;;;;21.16;35.63;101095.22;5072512;27;45323;-54
2022/05/02 12:00:07;;;;;;;;;31.67;30.00;;;;;21.26;35.45;101102.53;5056707;28;45479;-54
2022/05/02 12:02:48;;;;;;;;;31.00;27.33;;;;;21.16;35.45;101092.50;5072614;28;45388;-55
2022/05/02 12:05:23;;;;;;;;;29.67;25.67;;;;;21.13;35.09;101095.50;5057047;28;45345;-58